sensor_id;sensor_type;location;lat;lon;timestamp;pressure;altitude;pressure_sealevel;temperature;humidity
62632;BME280;48703;51.248;-0.546;2024-01-15T00:01:41;100412;;;1.88;97.07
62632;BME280;48703;51.248;-0.546;2024-01-15T00:04:41;100413;;;1.82;97.46
62632;BME280;48703;51.248;-0.546;2024-01-15T00:07:43;100413;;;1.77;97.83
62632;BME280;48703;51.248;-0.546;2024-01-15T00:10:45;100413;;;1.74;97.93
62632;BME280;48703;51.248;-0.546;2024-01-15T00:13:47;100411;;;1.69;97.70
62632;BME280;48703;51.248;-0.546;2024-01-15T00:16:50;100407;;;1.66;97.93
62632;BME280;48703;51.248;-0.546;2024-01-15T00:19:52;100401;;;1.65;98.21
62632;BME280;48703;51.248;-0.546;2024-01-15T00:22:54;100402;;;1.62;97.91
62632;BME280;48703;51.248;-0.546;2024-01-15T00:25:56;100401;;;1.58;98.46
62632;BME280;48703;51.248;-0.546;2024-01-15T00:28:59;100398;;;1.52;98.72
62632;BME280;48703;51.248;-0.546;2024-01-15T00:32:01;100400;;;1.48;98.87
62632;BME280;48703;51.248;-0.546;2024-01-15T00:35:04;100397;;;1.46;99.17
62632;BME280;48703;51.248;-0.546;2024-01-15T00:38:06;100390;;;1.41;99.82
62632;BME280;48703;51.248;-0.546;2024-01-15T00:41:08;100388;;;1.39;100.00
62632;BME280;48703;51.248;-0.546;2024-01-15T00:44:10;100382;;;1.38;99.84
62632;BME280;48703;51.248;-0.546;2024-01-15T00:47:12;100379;;;1.33;99.48
62632;BME280;48703;51.248;-0.546;2024-01-15T00:50:15;100376;;;1.29;99.92
62632;BME280;48703;51.248;-0.546;2024-01-15T00:53:17;100379;;;1.24;100.00
62632;BME280;48703;51.248;-0.546;2024-01-15T00:56:19;100380;;;1.21;100.00
62632;BME280;48703;51.248;-0.546;2024-01-15T00:59:22;100381;;;1.16;99.95
62632;BME280;48703;51.248;-0.546;2024-01-15T01:02:24;100378;;;1.12;100.00
62632;BME280;48703;51.248;-0.546;2024-01-15T01:05:26;100377;;;1.09;100.00
62632;BME280;48703;51.248;-0.546;2024-01-15T01:08:28;100373;;;1.04;100.00
62632;BME280;48703;51.248;-0.546;2024-01-15T01:11:31;100366;;;1.02;100.00
62632;BME280;48703;51.248;-0.546;2024-01-15T01:14:33;100364;;;0.96;100.00
62632;BME280;48703;51.248;-0.546;2024-01-15T01:17:35;100362;;;0.90;100.00
62632;BME280;48703;51.248;-0.546;2024-01-15T01:20:38;100358;;;0.83;100.00
62632;BME280;48703;51.248;-0.546;2024-01-15T01:23:41;100354;;;0.74;100.00
62632;BME280;48703;51.248;-0.546;2024-01-15T01:26:42;100352;;;0.61;100.00
62632;BME280;48703;51.248;-0.546;2024-01-15T01:29:44;100344;;;0.53;100.00
62632;BME280;48703;51.248;-0.546;2024-01-15T01:32:47;100340;;;0.48;100.00
62632;BME280;48703;51.248;-0.546;2024-01-15T01:35:49;100341;;;0.41;100.00
62632;BME280;48703;51.248;-0.546;2024-01-15T01:38:51;100337;;;0.36;100.00
62632;BME280;48703;51.248;-0.546;2024-01-15T01:41:53;100339;;;0.35;100.00
62632;BME280;48703;51.248;-0.546;2024-01-15T01:44:56;100342;;;0.31;100.00
62632;BME280;48703;51.248;-0.546;2024-01-15T01:47:58;100341;;;0.28;100.00
62632;BME280;48703;51.248;-0.546;2024-01-15T01:51:01;100348;;;0.24;100.00
62632;BME280;48703;51.248;-0.546;2024-01-15T01:54:03;100350;;;0.23;100.00
62632;BME280;48703;51.248;-0.546;2024-01-15T01:57:05;100351;;;0.21;100.00
62632;BME280;48703;51.248;-0.546;2024-01-15T02:00:08;100349;;;0.20;100.00
62632;BME280;48703;51.248;-0.546;2024-01-15T02:03:09;100352;;;0.16;100.00
62632;BME280;48703;51.248;-0.546;2024-01-15T02:06:12;100352;;;0.13;100.00
62632;BME280;48703;51.248;-0.546;2024-01-15T02:09:14;100348;;;0.08;100.00
62632;BME280;48703;51.248;-0.546;2024-01-15T02:12:16;100348;;;0.08;100.00
62632;BME280;48703;51.248;-0.546;2024-01-15T02:15:19;100342;;;0.08;100.00
62632;BME280;48703;51.248;-0.546;2024-01-15T02:18:21;100346;;;0.08;100.00
62632;BME280;48703;51.248;-0.546;2024-01-15T02:21:23;100347;;;0.08;100.00
62632;BME280;48703;51.248;-0.546;2024-01-15T02:24:27;100353;;;0.09;100.00
62632;BME280;48703;51.248;-0.546;2024-01-15T02:27:28;100355;;;0.12;100.00
62632;BME280;48703;51.248;-0.546;2024-01-15T02:30:30;100358;;;0.16;100.00
62632;BME280;48703;51.248;-0.546;2024-01-15T02:33:32;100359;;;0.19;100.00
62632;BME280;48703;51.248;-0.546;2024-01-15T02:36:36;100355;;;0.20;100.00
62632;BME280;48703;51.248;-0.546;2024-01-15T02:39:37;100346;;;0.22;100.00
62632;BME280;48703;51.248;-0.546;2024-01-15T02:42:39;100345;;;0.18;100.00
62632;BME280;48703;51.248;-0.546;2024-01-15T02:45:41;100343;;;0.17;100.00
62632;BME280;48703;51.248;-0.546;2024-01-15T02:48:44;100341;;;0.13;100.00
62632;BME280;48703;51.248;-0.546;2024-01-15T02:51:46;100339;;;0.08;100.00
62632;BME280;48703;51.248;-0.546;2024-01-15T02:54:48;100336;;;0.06;100.00
62632;BME280;48703;51.248;-0.546;2024-01-15T02:57:50;100339;;;0.03;100.00
62632;BME280;48703;51.248;-0.546;2024-01-15T03:00:53;100336;;;-0.01;100.00
62632;BME280;48703;51.248;-0.546;2024-01-15T03:03:55;100334;;;-0.05;100.00
62632;BME280;48703;51.248;-0.546;2024-01-15T03:06:57;100331;;;-0.06;100.00
62632;BME280;48703;51.248;-0.546;2024-01-15T03:10:00;100326;;;-0.11;100.00
62632;BME280;48703;51.248;-0.546;2024-01-15T03:13:02;100327;;;-0.15;100.00
62632;BME280;48703;51.248;-0.546;2024-01-15T03:16:04;100324;;;-0.14;100.00
62632;BME280;48703;51.248;-0.546;2024-01-15T03:19:06;100323;;;-0.15;100.00
62632;BME280;48703;51.248;-0.546;2024-01-15T03:22:09;100324;;;-0.18;100.00
62632;BME280;48703;51.248;-0.546;2024-01-15T03:25:11;100327;;;-0.20;100.00
62632;BME280;48703;51.248;-0.546;2024-01-15T03:28:13;100333;;;-0.25;100.00
62632;BME280;48703;51.248;-0.546;2024-01-15T03:31:15;100330;;;-0.29;100.00
62632;BME280;48703;51.248;-0.546;2024-01-15T03:34:18;100338;;;-0.32;100.00
62632;BME280;48703;51.248;-0.546;2024-01-15T03:37:20;100335;;;-0.30;100.00
62632;BME280;48703;51.248;-0.546;2024-01-15T03:40:22;100335;;;-0.31;100.00
62632;BME280;48703;51.248;-0.546;2024-01-15T03:43:25;100336;;;-0.36;100.00
62632;BME280;48703;51.248;-0.546;2024-01-15T03:46:27;100336;;;-0.40;100.00
62632;BME280;48703;51.248;-0.546;2024-01-15T03:49:29;100337;;;-0.42;100.00
62632;BME280;48703;51.248;-0.546;2024-01-15T03:52:31;100338;;;-0.43;100.00
62632;BME280;48703;51.248;-0.546;2024-01-15T03:55:34;100337;;;-0.44;100.00
62632;BME280;48703;51.248;-0.546;2024-01-15T03:58:36;100335;;;-0.43;100.00
62632;BME280;48703;51.248;-0.546;2024-01-15T04:01:38;100333;;;-0.47;100.00
62632;BME280;48703;51.248;-0.546;2024-01-15T04:04:41;100334;;;-0.50;100.00
62632;BME280;48703;51.248;-0.546;2024-01-15T04:07:43;100333;;;-0.53;100.00
62632;BME280;48703;51.248;-0.546;2024-01-15T04:10:45;100328;;;-0.56;100.00
62632;BME280;48703;51.248;-0.546;2024-01-15T04:13:49;100322;;;-0.59;100.00
62632;BME280;48703;51.248;-0.546;2024-01-15T04:16:50;100319;;;-0.61;100.00
62632;BME280;48703;51.248;-0.546;2024-01-15T04:19:52;100318;;;-0.60;100.00
62632;BME280;48703;51.248;-0.546;2024-01-15T04:22:54;100320;;;-0.63;100.00
62632;BME280;48703;51.248;-0.546;2024-01-15T04:25:58;100320;;;-0.65;100.00
62632;BME280;48703;51.248;-0.546;2024-01-15T04:28:59;100318;;;-0.67;100.00
62632;BME280;48703;51.248;-0.546;2024-01-15T04:32:02;100317;;;-0.68;100.00
62632;BME280;48703;51.248;-0.546;2024-01-15T04:35:04;100317;;;-0.66;100.00
62632;BME280;48703;51.248;-0.546;2024-01-15T04:38:07;100318;;;-0.63;100.00
62632;BME280;48703;51.248;-0.546;2024-01-15T04:41:09;100319;;;-0.61;100.00
62632;BME280;48703;51.248;-0.546;2024-01-15T04:44:10;100314;;;-0.58;100.00
62632;BME280;48703;51.248;-0.546;2024-01-15T04:47:12;100309;;;-0.57;100.00
62632;BME280;48703;51.248;-0.546;2024-01-15T04:50:16;100308;;;-0.52;100.00
62632;BME280;48703;51.248;-0.546;2024-01-15T04:53:17;100303;;;-0.49;100.00
62632;BME280;48703;51.248;-0.546;2024-01-15T04:56:19;100302;;;-0.45;100.00
62632;BME280;48703;51.248;-0.546;2024-01-15T04:59:21;100306;;;-0.44;100.00
62632;BME280;48703;51.248;-0.546;2024-01-15T05:02:24;100303;;;-0.42;100.00
62632;BME280;48703;51.248;-0.546;2024-01-15T05:05:26;100297;;;-0.41;100.00
62632;BME280;48703;51.248;-0.546;2024-01-15T05:08:28;100292;;;-0.39;100.00
62632;BME280;48703;51.248;-0.546;2024-01-15T05:11:31;100294;;;-0.39;100.00
62632;BME280;48703;51.248;-0.546;2024-01-15T05:14:33;100300;;;-0.41;100.00
62632;BME280;48703;51.248;-0.546;2024-01-15T05:17:35;100300;;;-0.41;100.00
62632;BME280;48703;51.248;-0.546;2024-01-15T05:20:37;100300;;;-0.43;100.00
62632;BME280;48703;51.248;-0.546;2024-01-15T05:23:40;100299;;;-0.46;100.00
62632;BME280;48703;51.248;-0.546;2024-01-15T05:26:42;100295;;;-0.48;100.00
62632;BME280;48703;51.248;-0.546;2024-01-15T05:29:44;100291;;;-0.54;100.00
62632;BME280;48703;51.248;-0.546;2024-01-15T05:32:46;100292;;;-0.55;100.00
62632;BME280;48703;51.248;-0.546;2024-01-15T05:35:49;100297;;;-0.58;100.00
62632;BME280;48703;51.248;-0.546;2024-01-15T05:38:51;100296;;;-0.59;100.00
62632;BME280;48703;51.248;-0.546;2024-01-15T05:41:53;100295;;;-0.57;100.00
62632;BME280;48703;51.248;-0.546;2024-01-15T05:44:56;100290;;;-0.64;100.00
62632;BME280;48703;51.248;-0.546;2024-01-15T05:47:58;100287;;;-0.65;100.00
62632;BME280;48703;51.248;-0.546;2024-01-15T05:51:00;100283;;;-0.67;100.00
62632;BME280;48703;51.248;-0.546;2024-01-15T05:54:03;100291;;;-0.73;100.00
62632;BME280;48703;51.248;-0.546;2024-01-15T05:57:05;100299;;;-0.74;100.00
62632;BME280;48703;51.248;-0.546;2024-01-15T06:00:08;100297;;;-0.76;100.00
62632;BME280;48703;51.248;-0.546;2024-01-15T06:03:09;100298;;;-0.78;100.00
62632;BME280;48703;51.248;-0.546;2024-01-15T06:06:11;100302;;;-0.75;100.00
62632;BME280;48703;51.248;-0.546;2024-01-15T06:09:14;100306;;;-0.73;100.00
62632;BME280;48703;51.248;-0.546;2024-01-15T06:12:16;100310;;;-0.72;100.00
62632;BME280;48703;51.248;-0.546;2024-01-15T06:15:18;100315;;;-0.70;100.00
62632;BME280;48703;51.248;-0.546;2024-01-15T06:18:20;100317;;;-0.68;100.00
62632;BME280;48703;51.248;-0.546;2024-01-15T06:21:23;100324;;;-0.69;100.00
62632;BME280;48703;51.248;-0.546;2024-01-15T06:24:25;100331;;;-0.73;100.00
62632;BME280;48703;51.248;-0.546;2024-01-15T06:27:27;100325;;;-0.74;100.00
62632;BME280;48703;51.248;-0.546;2024-01-15T06:30:30;100331;;;-0.75;100.00
62632;BME280;48703;51.248;-0.546;2024-01-15T06:33:32;100340;;;-0.79;100.00
62632;BME280;48703;51.248;-0.546;2024-01-15T06:36:34;100344;;;-0.83;100.00
62632;BME280;48703;51.248;-0.546;2024-01-15T06:39:36;100344;;;-0.86;100.00
62632;BME280;48703;51.248;-0.546;2024-01-15T06:42:39;100350;;;-0.89;100.00
62632;BME280;48703;51.248;-0.546;2024-01-15T06:45:41;100340;;;-0.87;100.00
62632;BME280;48703;51.248;-0.546;2024-01-15T06:48:43;100348;;;-0.87;100.00
62632;BME280;48703;51.248;-0.546;2024-01-15T06:51:45;100351;;;-0.85;100.00
62632;BME280;48703;51.248;-0.546;2024-01-15T06:54:48;100352;;;-0.83;100.00
62632;BME280;48703;51.248;-0.546;2024-01-15T06:57:50;100339;;;-0.82;100.00
62632;BME280;48703;51.248;-0.546;2024-01-15T07:00:52;100342;;;-0.78;100.00
62632;BME280;48703;51.248;-0.546;2024-01-15T07:03:55;100343;;;-0.78;100.00
62632;BME280;48703;51.248;-0.546;2024-01-15T07:06:57;100336;;;-0.77;100.00
62632;BME280;48703;51.248;-0.546;2024-01-15T07:09:59;100341;;;-0.77;100.00
62632;BME280;48703;51.248;-0.546;2024-01-15T07:13:01;100340;;;-0.76;100.00
62632;BME280;48703;51.248;-0.546;2024-01-15T07:16:04;100346;;;-0.76;100.00
62632;BME280;48703;51.248;-0.546;2024-01-15T07:19:06;100347;;;-0.76;100.00
62632;BME280;48703;51.248;-0.546;2024-01-15T07:22:08;100353;;;-0.78;100.00
62632;BME280;48703;51.248;-0.546;2024-01-15T07:25:10;100353;;;-0.79;100.00
62632;BME280;48703;51.248;-0.546;2024-01-15T07:28:13;100357;;;-0.78;100.00
62632;BME280;48703;51.248;-0.546;2024-01-15T07:31:15;100355;;;-0.78;100.00
62632;BME280;48703;51.248;-0.546;2024-01-15T07:34:17;100359;;;-0.80;100.00
62632;BME280;48703;51.248;-0.546;2024-01-15T07:37:20;100360;;;-0.80;100.00
62632;BME280;48703;51.248;-0.546;2024-01-15T07:40:22;100353;;;-0.81;100.00
62632;BME280;48703;51.248;-0.546;2024-01-15T07:43:24;100359;;;-0.85;100.00
62632;BME280;48703;51.248;-0.546;2024-01-15T07:46:27;100370;;;-0.86;100.00
62632;BME280;48703;51.248;-0.546;2024-01-15T07:49:29;100376;;;-0.90;100.00
62632;BME280;48703;51.248;-0.546;2024-01-15T07:52:31;100383;;;-0.92;100.00
62632;BME280;48703;51.248;-0.546;2024-01-15T07:55:33;100385;;;-0.89;100.00
62632;BME280;48703;51.248;-0.546;2024-01-15T07:58:36;100387;;;-0.91;100.00
62632;BME280;48703;51.248;-0.546;2024-01-15T08:01:38;100388;;;-0.92;100.00
62632;BME280;48703;51.248;-0.546;2024-01-15T08:04:40;100389;;;-0.93;100.00
62632;BME280;48703;51.248;-0.546;2024-01-15T08:07:42;100388;;;-0.93;100.00
62632;BME280;48703;51.248;-0.546;2024-01-15T08:10:44;100391;;;-0.95;100.00
62632;BME280;48703;51.248;-0.546;2024-01-15T08:13:47;100391;;;-1.00;100.00
62632;BME280;48703;51.248;-0.546;2024-01-15T08:16:49;100392;;;-1.04;100.00
62632;BME280;48703;51.248;-0.546;2024-01-15T08:19:51;100392;;;-1.06;100.00
62632;BME280;48703;51.248;-0.546;2024-01-15T08:22:54;100396;;;-1.08;100.00
62632;BME280;48703;51.248;-0.546;2024-01-15T08:25:56;100399;;;-1.11;100.00
62632;BME280;48703;51.248;-0.546;2024-01-15T08:28:58;100401;;;-1.11;100.00
62632;BME280;48703;51.248;-0.546;2024-01-15T08:32:00;100403;;;-1.14;100.00
62632;BME280;48703;51.248;-0.546;2024-01-15T08:35:03;100409;;;-1.16;100.00
62632;BME280;48703;51.248;-0.546;2024-01-15T08:38:05;100415;;;-1.17;100.00
62632;BME280;48703;51.248;-0.546;2024-01-15T08:41:07;100419;;;-1.19;100.00
62632;BME280;48703;51.248;-0.546;2024-01-15T08:44:10;100428;;;-1.19;100.00
62632;BME280;48703;51.248;-0.546;2024-01-15T08:47:12;100429;;;-1.17;100.00
62632;BME280;48703;51.248;-0.546;2024-01-15T08:50:14;100432;;;-1.13;100.00
62632;BME280;48703;51.248;-0.546;2024-01-15T08:53:16;100441;;;-1.14;100.00
62632;BME280;48703;51.248;-0.546;2024-01-15T08:56:18;100443;;;-1.14;100.00
62632;BME280;48703;51.248;-0.546;2024-01-15T08:59:21;100442;;;-1.12;100.00
62632;BME280;48703;51.248;-0.546;2024-01-15T09:02:23;100445;;;-1.09;100.00
62632;BME280;48703;51.248;-0.546;2024-01-15T09:05:25;100448;;;-1.11;100.00
62632;BME280;48703;51.248;-0.546;2024-01-15T09:08:27;100453;;;-1.08;100.00
62632;BME280;48703;51.248;-0.546;2024-01-15T09:11:30;100455;;;-1.04;100.00
62632;BME280;48703;51.248;-0.546;2024-01-15T09:14:32;100459;;;-1.00;100.00
62632;BME280;48703;51.248;-0.546;2024-01-15T09:17:34;100464;;;-0.95;100.00
62632;BME280;48703;51.248;-0.546;2024-01-15T09:20:37;100464;;;-0.90;100.00
62632;BME280;48703;51.248;-0.546;2024-01-15T09:23:39;100463;;;-0.83;100.00
62632;BME280;48703;51.248;-0.546;2024-01-15T09:26:41;100469;;;-0.78;100.00
62632;BME280;48703;51.248;-0.546;2024-01-15T09:29:43;100469;;;-0.73;100.00
62632;BME280;48703;51.248;-0.546;2024-01-15T09:32:46;100466;;;-0.69;100.00
62632;BME280;48703;51.248;-0.546;2024-01-15T09:35:48;100463;;;-0.64;100.00
62632;BME280;48703;51.248;-0.546;2024-01-15T09:38:50;100460;;;-0.58;100.00
62632;BME280;48703;51.248;-0.546;2024-01-15T09:41:53;100459;;;-0.53;100.00
62632;BME280;48703;51.248;-0.546;2024-01-15T09:44:55;100468;;;-0.47;100.00
62632;BME280;48703;51.248;-0.546;2024-01-15T09:47:57;100473;;;-0.41;100.00
62632;BME280;48703;51.248;-0.546;2024-01-15T09:51:00;100478;;;-0.36;100.00
62632;BME280;48703;51.248;-0.546;2024-01-15T09:54:02;100478;;;-0.31;100.00
62632;BME280;48703;51.248;-0.546;2024-01-15T09:57:04;100476;;;-0.25;100.00
62632;BME280;48703;51.248;-0.546;2024-01-15T10:00:06;100482;;;-0.21;100.00
62632;BME280;48703;51.248;-0.546;2024-01-15T10:03:08;100481;;;-0.13;100.00
62632;BME280;48703;51.248;-0.546;2024-01-15T10:06:11;100477;;;-0.08;100.00
62632;BME280;48703;51.248;-0.546;2024-01-15T10:09:13;100478;;;-0.03;100.00
62632;BME280;48703;51.248;-0.546;2024-01-15T10:12:15;100479;;;0.05;100.00
62632;BME280;48703;51.248;-0.546;2024-01-15T10:15:17;100486;;;0.11;100.00
62632;BME280;48703;51.248;-0.546;2024-01-15T10:18:20;100485;;;0.17;100.00
62632;BME280;48703;51.248;-0.546;2024-01-15T10:21:22;100489;;;0.22;100.00
62632;BME280;48703;51.248;-0.546;2024-01-15T10:24:24;100489;;;0.29;100.00
62632;BME280;48703;51.248;-0.546;2024-01-15T10:27:27;100495;;;0.34;99.51
62632;BME280;48703;51.248;-0.546;2024-01-15T10:30:29;100504;;;0.38;99.38
62632;BME280;48703;51.248;-0.546;2024-01-15T10:33:31;100512;;;0.43;99.38
62632;BME280;48703;51.248;-0.546;2024-01-15T10:36:33;100514;;;0.47;98.35
62632;BME280;48703;51.248;-0.546;2024-01-15T10:39:36;100515;;;0.51;96.79
62632;BME280;48703;51.248;-0.546;2024-01-15T10:42:38;100509;;;0.56;96.14
62632;BME280;48703;51.248;-0.546;2024-01-15T10:45:40;100509;;;0.61;95.18
62632;BME280;48703;51.248;-0.546;2024-01-15T10:48:42;100505;;;0.66;94.23
62632;BME280;48703;51.248;-0.546;2024-01-15T10:51:45;100498;;;0.68;94.65
62632;BME280;48703;51.248;-0.546;2024-01-15T10:54:47;100503;;;0.72;93.68
62632;BME280;48703;51.248;-0.546;2024-01-15T10:57:49;100505;;;0.74;91.32
62632;BME280;48703;51.248;-0.546;2024-01-15T11:00:51;100510;;;0.75;91.78
62632;BME280;48703;51.248;-0.546;2024-01-15T11:03:54;100507;;;0.77;89.14
62632;BME280;48703;51.248;-0.546;2024-01-15T11:06:56;100507;;;0.80;88.92
62632;BME280;48703;51.248;-0.546;2024-01-15T11:09:58;100509;;;0.81;88.14
62632;BME280;48703;51.248;-0.546;2024-01-15T11:13:01;100501;;;0.82;88.32
62632;BME280;48703;51.248;-0.546;2024-01-15T11:16:04;100500;;;0.85;89.59
62632;BME280;48703;51.248;-0.546;2024-01-15T11:19:05;100501;;;0.88;87.53
62632;BME280;48703;51.248;-0.546;2024-01-15T11:22:08;100497;;;0.89;87.19
62632;BME280;48703;51.248;-0.546;2024-01-15T11:25:12;100499;;;0.92;88.25
62632;BME280;48703;51.248;-0.546;2024-01-15T11:28:12;100501;;;0.96;86.37
62632;BME280;48703;51.248;-0.546;2024-01-15T11:31:14;100502;;;0.98;85.96
62632;BME280;48703;51.248;-0.546;2024-01-15T11:34:16;100504;;;1.02;83.55
62632;BME280;48703;51.248;-0.546;2024-01-15T11:37:19;100507;;;1.07;83.28
62632;BME280;48703;51.248;-0.546;2024-01-15T11:40:22;100505;;;1.09;82.73
62632;BME280;48703;51.248;-0.546;2024-01-15T11:43:23;100510;;;1.15;82.33
62632;BME280;48703;51.248;-0.546;2024-01-15T11:46:25;100517;;;1.18;77.68
62632;BME280;48703;51.248;-0.546;2024-01-15T11:49:31;100521;;;1.20;77.15
62632;BME280;48703;51.248;-0.546;2024-01-15T11:52:32;100523;;;1.23;76.39
62632;BME280;48703;51.248;-0.546;2024-01-15T11:55:33;100517;;;1.24;74.29
62632;BME280;48703;51.248;-0.546;2024-01-15T11:58:35;100518;;;1.27;76.75
62632;BME280;48703;51.248;-0.546;2024-01-15T12:01:37;100515;;;1.30;73.69
62632;BME280;48703;51.248;-0.546;2024-01-15T12:04:39;100515;;;1.33;73.59
62632;BME280;48703;51.248;-0.546;2024-01-15T12:07:42;100517;;;1.36;73.24
62632;BME280;48703;51.248;-0.546;2024-01-15T12:10:44;100523;;;1.38;72.01
62632;BME280;48703;51.248;-0.546;2024-01-15T12:13:46;100522;;;1.40;70.27
62632;BME280;48703;51.248;-0.546;2024-01-15T12:16:48;100522;;;1.45;70.92
62632;BME280;48703;51.248;-0.546;2024-01-15T12:19:51;100524;;;1.48;70.83
62632;BME280;48703;51.248;-0.546;2024-01-15T12:22:53;100526;;;1.49;70.58
62632;BME280;48703;51.248;-0.546;2024-01-15T12:25:55;100522;;;1.48;69.97
62632;BME280;48703;51.248;-0.546;2024-01-15T12:28:57;100523;;;1.49;70.75
62632;BME280;48703;51.248;-0.546;2024-01-15T12:32:00;100517;;;1.53;71.17
62632;BME280;48703;51.248;-0.546;2024-01-15T12:35:02;100516;;;1.58;71.50
62632;BME280;48703;51.248;-0.546;2024-01-15T12:38:04;100518;;;1.62;70.54
62632;BME280;48703;51.248;-0.546;2024-01-15T12:41:06;100523;;;1.63;68.92
62632;BME280;48703;51.248;-0.546;2024-01-15T12:44:09;100524;;;1.64;69.66
62632;BME280;48703;51.248;-0.546;2024-01-15T12:47:11;100532;;;1.66;70.14
62632;BME280;48703;51.248;-0.546;2024-01-15T12:50:13;100534;;;1.67;71.27
62632;BME280;48703;51.248;-0.546;2024-01-15T12:53:16;100535;;;1.69;69.46
62632;BME280;48703;51.248;-0.546;2024-01-15T12:56:18;100533;;;1.70;69.28
62632;BME280;48703;51.248;-0.546;2024-01-15T12:59:20;100533;;;1.72;69.46
62632;BME280;48703;51.248;-0.546;2024-01-15T13:02:22;100531;;;1.73;67.85
62632;BME280;48703;51.248;-0.546;2024-01-15T13:05:25;100540;;;1.75;65.85
62632;BME280;48703;51.248;-0.546;2024-01-15T13:08:27;100533;;;1.75;67.18
62632;BME280;48703;51.248;-0.546;2024-01-15T13:11:29;100535;;;1.74;66.94
62632;BME280;48703;51.248;-0.546;2024-01-15T13:14:32;100538;;;1.74;66.77
62632;BME280;48703;51.248;-0.546;2024-01-15T13:17:34;100539;;;1.75;67.30
62632;BME280;48703;51.248;-0.546;2024-01-15T13:20:36;100534;;;1.74;65.58
62632;BME280;48703;51.248;-0.546;2024-01-15T13:23:38;100524;;;1.78;65.91
62632;BME280;48703;51.248;-0.546;2024-01-15T13:26:41;100522;;;1.80;65.82
62632;BME280;48703;51.248;-0.546;2024-01-15T13:29:43;100527;;;1.85;66.27
62632;BME280;48703;51.248;-0.546;2024-01-15T13:32:45;100525;;;1.88;63.84
62632;BME280;48703;51.248;-0.546;2024-01-15T13:35:47;100527;;;1.91;65.23
62632;BME280;48703;51.248;-0.546;2024-01-15T13:38:50;100529;;;1.90;63.26
62632;BME280;48703;51.248;-0.546;2024-01-15T13:41:52;100521;;;1.93;65.06
62632;BME280;48703;51.248;-0.546;2024-01-15T13:44:54;100520;;;1.93;63.99
62632;BME280;48703;51.248;-0.546;2024-01-15T13:47:56;100521;;;1.91;62.39
62632;BME280;48703;51.248;-0.546;2024-01-15T13:50:59;100524;;;1.93;62.39
62632;BME280;48703;51.248;-0.546;2024-01-15T13:54:01;100522;;;1.96;63.90
62632;BME280;48703;51.248;-0.546;2024-01-15T13:57:03;100524;;;1.95;62.44
62632;BME280;48703;51.248;-0.546;2024-01-15T14:00:06;100522;;;1.96;63.26
62632;BME280;48703;51.248;-0.546;2024-01-15T14:03:08;100521;;;1.97;63.55
62632;BME280;48703;51.248;-0.546;2024-01-15T14:06:10;100513;;;1.97;63.10
62632;BME280;48703;51.248;-0.546;2024-01-15T14:09:12;100511;;;2.03;64.36
62632;BME280;48703;51.248;-0.546;2024-01-15T14:12:15;100511;;;2.09;64.43
62632;BME280;48703;51.248;-0.546;2024-01-15T14:15:17;100511;;;2.07;62.97
62632;BME280;48703;51.248;-0.546;2024-01-15T14:18:19;100510;;;2.10;61.98
62632;BME280;48703;51.248;-0.546;2024-01-15T14:21:21;100507;;;2.11;62.27
62632;BME280;48703;51.248;-0.546;2024-01-15T14:24:24;100502;;;2.10;61.59
62632;BME280;48703;51.248;-0.546;2024-01-15T14:27:26;100499;;;2.14;62.63
62632;BME280;48703;51.248;-0.546;2024-01-15T14:30:28;100500;;;2.18;63.46
62632;BME280;48703;51.248;-0.546;2024-01-15T14:33:30;100494;;;2.12;61.68
62632;BME280;48703;51.248;-0.546;2024-01-15T14:36:33;100494;;;2.06;62.57
62632;BME280;48703;51.248;-0.546;2024-01-15T14:39:35;100495;;;2.00;61.48
62632;BME280;48703;51.248;-0.546;2024-01-15T14:42:37;100499;;;2.00;61.72
62632;BME280;48703;51.248;-0.546;2024-01-15T14:45:39;100509;;;1.94;58.34
62632;BME280;48703;51.248;-0.546;2024-01-15T14:48:43;100516;;;1.91;59.02
62632;BME280;48703;51.248;-0.546;2024-01-15T14:51:44;100520;;;1.87;59.69
62632;BME280;48703;51.248;-0.546;2024-01-15T14:54:46;100523;;;1.85;61.11
62632;BME280;48703;51.248;-0.546;2024-01-15T14:57:48;100527;;;1.81;62.47
62632;BME280;48703;51.248;-0.546;2024-01-15T15:00:51;100532;;;1.76;60.64
62632;BME280;48703;51.248;-0.546;2024-01-15T15:03:53;100542;;;1.75;61.83
62632;BME280;48703;51.248;-0.546;2024-01-15T15:06:55;100547;;;1.72;61.13
62632;BME280;48703;51.248;-0.546;2024-01-15T15:09:59;100545;;;1.69;60.30
62632;BME280;48703;51.248;-0.546;2024-01-15T15:13:00;100544;;;1.66;61.10
62632;BME280;48703;51.248;-0.546;2024-01-15T15:16:02;100548;;;1.62;61.73
62632;BME280;48703;51.248;-0.546;2024-01-15T15:19:04;100553;;;1.57;62.68
62632;BME280;48703;51.248;-0.546;2024-01-15T15:22:06;100558;;;1.53;62.87
62632;BME280;48703;51.248;-0.546;2024-01-15T15:25:09;100560;;;1.48;61.73
62632;BME280;48703;51.248;-0.546;2024-01-15T15:28:11;100563;;;1.45;61.34
62632;BME280;48703;51.248;-0.546;2024-01-15T15:31:13;100564;;;1.42;62.00
62632;BME280;48703;51.248;-0.546;2024-01-15T15:34:15;100565;;;1.37;61.58
62632;BME280;48703;51.248;-0.546;2024-01-15T15:37:18;100561;;;1.34;62.45
62632;BME280;48703;51.248;-0.546;2024-01-15T15:39:26;100559;;;1.32;64.32
62632;BME280;48703;51.248;-0.546;2024-01-15T15:42:21;100560;;;1.29;63.75
62632;BME280;48703;51.248;-0.546;2024-01-15T15:45:24;100563;;;1.23;63.02
62632;BME280;48703;51.248;-0.546;2024-01-15T15:48:26;100567;;;1.20;63.79
62632;BME280;48703;51.248;-0.546;2024-01-15T15:51:28;100571;;;1.15;63.27
62632;BME280;48703;51.248;-0.546;2024-01-15T15:53:44;100574;;;1.12;63.79
62632;BME280;48703;51.248;-0.546;2024-01-15T15:56:32;100578;;;1.08;64.95
62632;BME280;48703;51.248;-0.546;2024-01-15T15:59:34;100579;;;1.05;64.54
62632;BME280;48703;51.248;-0.546;2024-01-15T16:02:36;100582;;;1.02;66.33
62632;BME280;48703;51.248;-0.546;2024-01-15T16:05:40;100584;;;0.97;65.27
62632;BME280;48703;51.248;-0.546;2024-01-15T16:08:41;100586;;;0.93;64.20
62632;BME280;48703;51.248;-0.546;2024-01-15T16:11:43;100586;;;0.89;64.09
62632;BME280;48703;51.248;-0.546;2024-01-15T16:14:45;100585;;;0.86;65.36